Time;durP1;ratioP1;P1;durP2;ratioP2;P2;SDS_P1;SDS_P2;PMS_P1;PMS_P2;Temp;Humidity;BMP_temperature;BMP_pressure;BME280_temperature;BME280_humidity;BME280_pressure;Samples;Min_cycle;Max_cycle;Signal;HPM_P1;HPM_P2
2022/09/08 00:02:11;;;;;;;;;;;;;;;19.65;44.37;101081.59;4971685;28;19940;-55
2022/09/08 00:04:36;;;;;;;;;;;;;;;19.64;44.42;101084.41;4973010;28;19992;-56
2022/09/08 00:07:01;;;;;;;;;;;;;;;19.61;44.47;101077.53;4970903;28;19928;-56
2022/09/08 00:09:29;;;;;;;;;;;;;;;19.59;44.66;101086.63;4974397;28;20282;-56
2022/09/08 00:11:56;;;;;;;;;;;;;;;19.54;44.37;101084.38;4978154;28;19961;-57
2022/09/08 00:14:21;;;;;;;;;;;;;;;19.49;44.38;101074.13;4974429;28;20064;-54
2022/09/08 00:16:46;;;;;;;;;;;;;;;19.45;44.45;101078.06;4974384;28;20028;-55
2022/09/08 00:19:12;;;;;;;;;;;;;;;19.41;44.47;101073.13;4978159;28;19926;-56
2022/09/08 00:21:37;;;;;;;;;;;;;;;19.37;44.63;101083.25;4973733;28;19930;-56
2022/09/08 00:24:02;;;;;;;;;;;;;;;19.36;44.46;101089.56;4978178;28;21969;-54
2022/09/08 00:26:28;;;;;;;;;;;;;;;19.33;44.83;101081.84;4982116;28;19973;-57
2022/09/08 00:28:53;;;;;;;;;;;;;;;19.30;44.66;101079.44;4985818;28;19930;-56
2022/09/08 00:31:18;;;;;;;;;;;;;;;19.29;44.51;101080.41;4981887;28;20440;-56
2022/09/08 00:33:44;;;;;;;;;;;;;;;19.25;44.66;101087.03;4981091;28;19942;-56
2022/09/08 00:36:16;;;;;;;;;;;;;;;19.24;44.90;101085.34;4978887;28;20420;-56
2022/09/08 00:38:50;;;;;;;;;;;;;;;19.23;44.67;101078.31;4982693;28;19948;-57
2022/09/08 00:41:15;;;;;;;;;;;;;;;19.23;44.43;101079.16;4974586;28;19968;-56
2022/09/08 00:43:42;;;;;;;;;;;;;;;19.24;44.48;101086.16;4981855;28;19930;-56
2022/09/08 00:46:17;;;;;;;;;;;;;;;19.25;44.42;101084.38;4978948;28;19930;-56
2022/09/08 00:48:47;;;;;;;;;;;;;;;19.24;44.37;101086.16;4984560;28;19928;-56
2022/09/08 00:51:14;;;;;;;;;;;;;;;19.24;44.20;101080.00;4982543;28;19922;-55
2022/09/08 00:53:39;;;;;;;;;;;;;;;19.23;44.00;101081.81;4979691;28;19930;-54
2022/09/08 00:56:05;;;;;;;;;;;;;;;19.24;43.77;101082.66;4921891;28;1904692;-55
2022/09/08 00:58:35;;;;;;;;;;;;;;;19.24;44.00;101077.34;4981930;28;19925;-56
2022/09/08 01:01:00;;;;;;;;;;;;;;;19.23;44.00;101080.97;4983380;28;19941;-54
2022/09/08 01:03:26;;;;;;;;;;;;;;;19.23;43.88;101075.66;4983385;28;19926;-55
2022/09/08 01:06:07;;;;;;;;;;;;;;;19.23;43.78;101070.31;4981702;28;19925;-56
2022/09/08 01:14:18;;;;;;;;;;;;;;;19.19;43.42;101070.59;4981556;28;20404;-55
2022/09/08 01:16:48;;;;;;;;;;;;;;;19.19;43.58;101075.91;4984188;28;19922;-55
2022/09/08 01:19:16;;;;;;;;;;;;;;;19.15;43.41;101069.16;4982927;28;20115;-53
2022/09/08 01:21:57;;;;;;;;;;;;;;;19.14;43.38;101075.47;4985126;28;19929;-54
2022/09/08 01:24:31;;;;;;;;;;;;;;;19.11;43.26;101065.09;4984040;28;19933;-56
2022/09/08 01:27:00;;;;;;;;;;;;;;;19.09;43.23;101063.53;4985692;28;20390;-54
2022/09/08 01:29:25;;;;;;;;;;;;;;;19.06;43.30;101059.31;4985226;28;19976;-54
2022/09/08 01:31:52;;;;;;;;;;;;;;;19.03;43.07;101052.44;4982196;28;19923;-58
2022/09/08 01:34:18;;;;;;;;;;;;;;;19.02;43.20;101052.56;4982795;28;19984;-56
2022/09/08 01:36:43;;;;;;;;;;;;;;;19.00;43.20;101054.53;4984058;28;20385;-57
2022/09/08 01:39:09;;;;;;;;;;;;;;;18.98;42.98;101051.19;4988013;28;19925;-57
2022/09/08 01:41:34;;;;;;;;;;;;;;;18.96;43.18;101047.81;4987772;28;19980;-57
2022/09/08 01:43:59;;;;;;;;;;;;;;;18.94;43.10;101033.72;4985392;28;19944;-57
2022/09/08 01:46:25;;;;;;;;;;;;;;;18.92;43.05;101031.19;4985947;28;19925;-57
2022/09/08 01:48:51;;;;;;;;;;;;;;;18.90;43.01;101033.16;4982653;28;19936;-56
2022/09/08 01:51:16;;;;;;;;;;;;;;;18.88;43.00;101025.28;4984214;28;19922;-57
2022/09/08 01:53:41;;;;;;;;;;;;;;;18.85;42.57;101022.88;4979685;28;20340;-56
2022/09/08 01:56:07;;;;;;;;;;;;;;;18.83;42.97;101027.50;4986164;28;20024;-56
2022/09/08 01:58:33;;;;;;;;;;;;;;;18.82;42.91;101022.31;4983436;28;19926;-53
2022/09/08 02:00:58;;;;;;;;;;;;;;;18.79;42.96;101026.09;4985176;28;20300;-54
2022/09/08 02:03:24;;;;;;;;;;;;;;;18.77;42.99;101028.06;4987137;28;19936;-54
2022/09/08 02:05:49;;;;;;;;;;;;;;;18.76;42.90;101030.84;4983599;28;19926;-54
2022/09/08 02:08:15;;;;;;;;;;;;;;;18.76;42.99;101041.50;4986458;28;20036;-56
2022/09/08 02:10:40;;;;;;;;;;;;;;;18.73;43.01;101040.81;4987037;28;19952;-56
2022/09/08 02:13:05;;;;;;;;;;;;;;;18.73;43.10;101031.97;4983717;28;19926;-55
2022/09/08 02:15:31;;;;;;;;;;;;;;;18.71;43.04;101028.59;4987797;28;19918;-56
2022/09/08 02:17:57;;;;;;;;;;;;;;;18.71;42.86;101042.78;4984859;28;20569;-54
2022/09/08 02:20:22;;;;;;;;;;;;;;;18.72;42.78;101046.28;4982729;28;19929;-56
2022/09/08 02:22:47;;;;;;;;;;;;;;;18.73;42.71;101047.97;4985592;28;20458;-54
2022/09/08 02:25:13;;;;;;;;;;;;;;;18.73;42.62;101043.50;4983879;28;19990;-54
2022/09/08 02:27:38;;;;;;;;;;;;;;;18.73;42.52;101024.81;4987139;28;19926;-53
2022/09/08 02:30:04;;;;;;;;;;;;;;;18.74;42.62;101028.31;4984343;28;19922;-55
2022/09/08 02:32:29;;;;;;;;;;;;;;;18.76;42.76;101028.19;4982343;28;20000;-55
2022/09/08 02:34:54;;;;;;;;;;;;;;;18.76;42.64;101026.38;4977790;28;20079;-55
2022/09/08 02:37:20;;;;;;;;;;;;;;;18.76;42.68;101030.84;4975129;28;19936;-56
2022/09/08 02:39:45;;;;;;;;;;;;;;;18.77;42.65;101028.06;4979085;28;19930;-58
2022/09/08 02:42:11;;;;;;;;;;;;;;;18.76;42.49;101026.38;4977105;28;20016;-57
2022/09/08 02:44:37;;;;;;;;;;;;;;;18.76;42.43;101021.03;4980818;28;20060;-54
2022/09/08 02:47:02;;;;;;;;;;;;;;;18.79;42.57;101019.91;4977650;28;19928;-54
2022/09/08 02:49:30;;;;;;;;;;;;;;;18.80;42.41;101016.28;4978547;28;19930;-57
2022/09/08 02:51:55;;;;;;;;;;;;;;;18.81;42.32;101007.31;4981135;28;19932;-55
2022/09/08 02:54:20;;;;;;;;;;;;;;;18.82;42.38;100993.00;4980752;28;19930;-55
2022/09/08 02:56:46;;;;;;;;;;;;;;;18.82;42.26;100998.31;4981253;28;19925;-56
2022/09/08 02:59:12;;;;;;;;;;;;;;;18.82;42.28;100996.53;4980008;28;19925;-56
2022/09/08 03:01:37;;;;;;;;;;;;;;;18.81;42.15;100991.31;4979764;28;19934;-53
2022/09/08 03:04:03;;;;;;;;;;;;;;;18.80;42.20;100978.94;4978706;28;19930;-54
2022/09/08 03:06:28;;;;;;;;;;;;;;;18.79;42.34;100983.47;4979955;28;19925;-55
2022/09/08 03:08:54;;;;;;;;;;;;;;;18.80;42.24;100976.28;4977339;28;19929;-58
2022/09/08 03:11:21;;;;;;;;;;;;;;;18.79;42.28;100972.78;4975100;28;19921;-55
2022/09/08 03:13:46;;;;;;;;;;;;;;;18.79;42.28;100966.59;4980041;28;19926;-57
2022/09/08 03:16:11;;;;;;;;;;;;;;;18.78;42.23;100963.09;4979980;28;19924;-58
2022/09/08 03:18:36;;;;;;;;;;;;;;;18.75;42.21;100963.38;4982592;28;20016;-57
2022/09/08 03:21:08;;;;;;;;;;;;;;;18.73;42.15;100957.34;4976728;28;19937;-54
2022/09/08 03:23:33;;;;;;;;;;;;;;;18.72;42.17;100955.66;4971817;28;19965;-55
2022/09/08 03:26:25;;;;;;;;;;;;;;;18.71;42.13;100948.63;4976992;28;20021;-54
2022/09/08 03:28:50;;;;;;;;;;;;;;;18.70;42.26;100942.47;4980234;28;20389;-57
2022/09/08 03:31:17;;;;;;;;;;;;;;;18.71;42.03;100937.97;4980514;28;19925;-55
2022/09/08 03:33:43;;;;;;;;;;;;;;;18.71;41.99;100943.28;4975655;28;19967;-56
2022/09/08 03:36:09;;;;;;;;;;;;;;;18.71;42.20;100937.97;4981295;28;19965;-54
2022/09/08 03:38:35;;;;;;;;;;;;;;;18.71;42.20;100948.63;4977422;28;20084;-54
2022/09/08 03:41:04;;;;;;;;;;;;;;;18.69;42.26;100946.13;4975351;28;20513;-54
2022/09/08 03:43:30;;;;;;;;;;;;;;;18.69;42.09;100939.91;4981501;28;19925;-56
2022/09/08 03:45:56;;;;;;;;;;;;;;;18.67;42.05;100944.56;4977599;28;19937;-57
2022/09/08 03:48:21;;;;;;;;;;;;;;;18.68;42.17;100951.59;4978703;28;20377;-55
2022/09/08 03:50:46;;;;;;;;;;;;;;;18.67;42.19;100957.91;4981063;28;19922;-57
2022/09/08 03:53:12;;;;;;;;;;;;;;;18.66;42.10;100957.03;4978842;28;19929;-55
2022/09/08 03:55:41;;;;;;;;;;;;;;;18.68;42.20;100954.25;4972571;28;19976;-57
2022/09/08 03:58:06;;;;;;;;;;;;;;;18.67;42.14;100952.56;4979508;28;20405;-55
2022/09/08 04:00:32;;;;;;;;;;;;;;;18.67;42.05;100947.25;4981524;28;20748;-56
2022/09/08 04:02:57;;;;;;;;;;;;;;;18.65;42.24;100938.53;4974994;28;19929;-54
2022/09/08 04:05:23;;;;;;;;;;;;;;;18.63;42.19;100935.16;4974793;28;19926;-55
2022/09/08 04:07:49;;;;;;;;;;;;;;;18.62;41.99;100933.47;4980056;28;19921;-54
2022/09/08 04:10:15;;;;;;;;;;;;;;;18.59;42.31;100940.75;4973650;28;20359;-53
2022/09/08 04:12:40;;;;;;;;;;;;;;;18.57;42.08;100937.38;4973476;28;20403;-55
2022/09/08 04:15:06;;;;;;;;;;;;;;;18.55;42.08;100934.00;4982662;28;19922;-56
2022/09/08 04:17:31;;;;;;;;;;;;;;;18.54;42.04;100948.31;4973269;28;19921;-55
2022/09/08 04:19:57;;;;;;;;;;;;;;;18.52;42.09;100946.75;4975393;28;19929;-57
2022/09/08 04:22:22;;;;;;;;;;;;;;;18.48;42.02;100948.88;4979298;28;19940;-54
2022/09/08 04:24:48;;;;;;;;;;;;;;;18.47;42.04;100946.31;4983841;28;19926;-56
2022/09/08 04:27:14;;;;;;;;;;;;;;;18.45;41.98;100949.13;4981355;28;19976;-55
2022/09/08 04:29:39;;;;;;;;;;;;;;;18.43;42.20;100951.06;4973747;28;19926;-55
2022/09/08 04:32:07;;;;;;;;;;;;;;;18.41;42.32;100963.69;4966828;28;19971;-55
2022/09/08 04:34:32;;;;;;;;;;;;;;;18.41;42.33;100971.69;4974093;28;19925;-57
2022/09/08 04:36:57;;;;;;;;;;;;;;;18.45;42.03;100981.09;4979776;28;19929;-53
2022/09/08 04:39:22;;;;;;;;;;;;;;;18.45;42.36;100986.44;4972294;28;19926;-54
2022/09/08 04:41:48;;;;;;;;;;;;;;;18.45;42.11;100983.75;4972968;28;19934;-56
2022/09/08 04:44:13;;;;;;;;;;;;;;;18.43;42.24;100977.72;4976211;28;20128;-56
2022/09/08 04:46:39;;;;;;;;;;;;;;;18.38;42.31;100970.13;4974545;28;19922;-57
2022/09/08 04:49:05;;;;;;;;;;;;;;;18.35;42.15;100965.06;4977175;28;19925;-57
2022/09/08 04:51:30;;;;;;;;;;;;;;;18.33;42.16;100966.19;4974533;28;19953;-55
2022/09/08 04:53:57;;;;;;;;;;;;;;;18.30;42.35;100969.13;4980039;28;19961;-58
2022/09/08 04:56:23;;;;;;;;;;;;;;;18.30;42.28;100955.81;4971294;28;20516;-56
2022/09/08 04:58:49;;;;;;;;;;;;;;;18.27;42.20;100956.91;4973231;28;19973;-55
2022/09/08 05:01:18;;;;;;;;;;;;;;;18.27;42.12;100956.91;4974959;28;19926;-54
2022/09/08 05:03:43;;;;;;;;;;;;;;;18.24;42.36;100954.53;4985868;28;20002;-58
2022/09/08 05:06:13;;;;;;;;;;;;;;;18.18;42.32;100968.34;4984794;28;19931;-60
2022/09/08 05:08:40;;;;;;;;;;;;;;;18.16;42.27;100970.31;4987317;28;19945;-58
2022/09/08 05:11:06;;;;;;;;;;;;;;;18.15;42.47;100982.78;4985080;28;20435;-55
2022/09/08 05:13:31;;;;;;;;;;;;;;;18.15;42.40;100980.13;4989861;28;19921;-54
2022/09/08 05:16:00;;;;;;;;;;;;;;;18.14;42.45;100973.13;4990024;28;20024;-55
2022/09/08 05:18:25;;;;;;;;;;;;;;;18.15;42.25;100969.47;4986440;28;19936;-55
2022/09/08 05:20:54;;;;;;;;;;;;;;;18.16;42.40;100960.50;4986724;28;19930;-54
2022/09/08 05:23:19;;;;;;;;;;;;;;;18.17;42.57;100948.03;4986012;28;19925;-54
2022/09/08 05:25:44;;;;;;;;;;;;;;;18.17;42.46;100940.91;4986357;28;19998;-57
2022/09/08 05:28:10;;;;;;;;;;;;;;;18.21;42.44;100941.47;4991383;28;19921;-56
2022/09/08 05:30:39;;;;;;;;;;;;;;;18.24;42.43;100952.69;4988426;28;19925;-54
2022/09/08 05:33:04;;;;;;;;;;;;;;;18.23;42.44;100945.66;4984595;28;19918;-56
2022/09/08 05:35:29;;;;;;;;;;;;;;;18.21;42.50;100942.31;4987655;28;20285;-56
2022/09/08 05:37:55;;;;;;;;;;;;;;;18.21;42.52;100946.78;4987826;28;19929;-55
2022/09/08 05:40:20;;;;;;;;;;;;;;;18.18;42.82;100957.69;4985449;28;19930;-57
2022/09/08 05:42:45;;;;;;;;;;;;;;;18.15;42.80;100958.81;4987749;28;20015;-58
2022/09/08 05:45:11;;;;;;;;;;;;;;;18.14;42.73;100967.78;4987367;28;20474;-55
2022/09/08 05:47:37;;;;;;;;;;;;;;;18.12;42.97;100965.25;4985473;28;20759;-54
2022/09/08 05:50:02;;;;;;;;;;;;;;;18.12;42.71;100964.41;4987334;28;20459;-57
2022/09/08 05:52:31;;;;;;;;;;;;;;;18.13;42.99;100969.63;4988969;28;19918;-55
2022/09/08 05:54:56;;;;;;;;;;;;;;;18.16;43.06;100959.66;4985844;28;19922;-56
2022/09/08 05:57:21;;;;;;;;;;;;;;;18.17;42.97;100954.22;4987113;28;19929;-56
2022/09/08 05:59:47;;;;;;;;;;;;;;;18.16;43.16;100947.19;4985385;28;20281;-54
2022/09/08 06:02:12;;;;;;;;;;;;;;;18.15;43.13;100942.84;4988476;28;19918;-57
2022/09/08 06:04:37;;;;;;;;;;;;;;;18.15;43.15;100945.50;4984279;28;19980;-54
2022/09/08 06:07:03;;;;;;;;;;;;;;;18.15;43.22;100939.34;4985694;28;19925;-57
2022/09/08 06:09:28;;;;;;;;;;;;;;;18.16;43.30;100951.66;4985070;28;19921;-54
2022/09/08 06:11:53;;;;;;;;;;;;;;;18.14;43.38;100951.81;4988435;28;19932;-57
2022/09/08 06:14:18;;;;;;;;;;;;;;;18.14;43.69;100949.16;4987812;28;19924;-57
2022/09/08 06:16:44;;;;;;;;;;;;;;;18.16;43.80;100951.66;4988588;28;19968;-56
2022/09/08 06:19:11;;;;;;;;;;;;;;;18.17;43.78;100942.69;4986624;28;20028;-54
2022/09/08 06:21:36;;;;;;;;;;;;;;;18.17;43.89;100945.34;4984802;28;20025;-55
2022/09/08 06:24:03;;;;;;;;;;;;;;;18.16;44.04;100956.97;4987730;28;20016;-54
2022/09/08 06:26:41;;;;;;;;;;;;;;;18.11;44.06;100954.72;4987025;28;19926;-57
2022/09/08 06:29:10;;;;;;;;;;;;;;;18.10;44.25;100966.34;4986469;28;19929;-55
2022/09/08 06:31:40;;;;;;;;;;;;;;;18.10;44.42;100966.34;4989325;28;19941;-56
2022/09/08 06:34:11;;;;;;;;;;;;;;;18.08;44.42;100966.50;4988017;28;19952;-55
2022/09/08 06:36:45;;;;;;;;;;;;;;;18.05;44.68;100972.09;4986053;28;19921;-54
2022/09/08 06:39:27;;;;;;;;;;;;;;;18.03;45.07;100976.69;4986859;28;20393;-54
2022/09/08 06:42:00;;;;;;;;;;;;;;;18.02;45.05;100963.53;4987896;28;19921;-55
2022/09/08 06:44:29;;;;;;;;;;;;;;;17.97;45.28;100951.44;4986859;28;19913;-55
2022/09/08 06:46:56;;;;;;;;;;;;;;;17.93;45.40;100959.78;4988108;28;19925;-54
2022/09/08 06:49:25;;;;;;;;;;;;;;;17.86;45.69;100953.28;4987550;28;19936;-55
2022/09/08 06:51:51;;;;;;;;;;;;;;;17.82;45.68;100952.72;4988206;28;19925;-54
2022/09/08 06:54:35;;;;;;;;;;;;;;;17.82;45.83;100947.41;4988169;28;19913;-56
2022/09/08 06:57:00;;;;;;;;;;;;;;;17.80;46.13;100944.03;4986839;28;20381;-54
2022/09/08 06:59:47;;;;;;;;;;;;;;;17.76;46.26;100942.63;4985814;28;19976;-57
2022/09/08 07:02:13;;;;;;;;;;;;;;;17.73;46.57;100945.53;4985518;28;19929;-57
2022/09/08 07:04:57;;;;;;;;;;;;;;;17.73;46.63;100945.53;4982631;28;19976;-56
2022/09/08 07:07:28;;;;;;;;;;;;;;;17.73;46.67;100942.88;4981637;28;20004;-56
2022/09/08 07:10:03;;;;;;;;;;;;;;;17.75;46.83;100940.94;4983918;28;20493;-57
2022/09/08 07:12:38;;;;;;;;;;;;;;;17.75;46.65;100943.59;4983771;28;19936;-57
2022/09/08 07:15:04;;;;;;;;;;;;;;;17.80;46.71;100936.91;4986566;28;19952;-56
2022/09/08 07:17:35;;;;;;;;;;;;;;;17.83;46.71;100928.66;4984893;28;19921;-57
2022/09/08 07:20:00;;;;;;;;;;;;;;;17.82;47.01;100924.31;4984355;28;19926;-59
2022/09/08 07:22:31;;;;;;;;;;;;;;;17.83;46.89;100930.47;4984127;28;19945;-57
2022/09/08 07:25:07;;;;;;;;;;;;;;;17.85;47.06;100919.69;4981586;28;20401;-57
2022/09/08 07:27:32;;;;;;;;;;;;;;;17.82;47.16;100924.31;4984283;28;20008;-54
2022/09/08 07:30:00;;;;;;;;;;;;;;;17.81;47.21;100924.41;4984297;28;20285;-57
2022/09/08 07:32:28;;;;;;;;;;;;;;;17.83;47.51;100926.00;4984841;28;19921;-54
2022/09/08 07:34:57;;;;;;;;;;;;;;;17.85;47.39;100923.19;4984933;28;20624;-55
2022/09/08 07:37:34;;;;;;;;;;;;;;;17.88;47.38;100930.91;4984095;28;20055;-55
2022/09/08 07:40:20;;;;;;;;;;;;;;;17.91;47.53;100925.34;4986208;28;19972;-57
2022/09/08 07:42:55;;;;;;;;;;;;;;;17.96;47.63;100928.41;4980885;28;20024;-55
2022/09/08 07:45:22;;;;;;;;;;;;;;;18.01;47.50;100920.06;4982929;28;19918;-56
2022/09/08 07:48:02;;;;;;;;;;;;;;;18.05;47.53;100920.66;4985380;28;19918;-54
2022/09/08 07:50:53;;;;;;;;;;;;;;;18.09;47.56;100917.59;4978294;28;20498;-53
2022/09/08 07:53:25;;;;;;;;;;;;;;;18.12;47.55;100921.81;4987515;28;19918;-58
2022/09/08 07:55:51;;;;;;;;;;;;;;;18.15;47.68;100918.06;4976970;28;20457;-53
2022/09/08 07:58:19;;;;;;;;;;;;;;;18.20;47.85;100916.66;4981557;28;19929;-56
2022/09/08 08:00:44;;;;;;;;;;;;;;;18.22;47.76;100912.06;4986671;28;19937;-53
2022/09/08 08:03:12;;;;;;;;;;;;;;;18.24;47.66;100910.06;4986829;28;19918;-55
2022/09/08 08:05:38;;;;;;;;;;;;;;;18.27;47.93;100901.00;4982090;28;19928;-56
2022/09/08 08:08:09;;;;;;;;;;;;;;;18.31;47.87;100897.06;4981865;28;19921;-56
2022/09/08 08:10:38;;;;;;;;;;;;;;;18.31;47.77;100905.03;4986338;28;19926;-58
2022/09/08 08:13:03;;;;;;;;;;;;;;;18.33;47.91;100897.75;4984708;28;19921;-56
2022/09/08 08:15:54;;;;;;;;;;;;;;;18.36;47.97;100902.00;4986557;28;19925;-57
2022/09/08 08:18:28;;;;;;;;;;;;;;;18.37;48.03;100909.00;4981522;28;19924;-55
2022/09/08 08:21:20;;;;;;;;;;;;;;;18.39;47.89;100912.34;4983864;28;20304;-58
2022/09/08 08:24:01;;;;;;;;;;;;;;;18.44;47.82;100902.16;4985033;28;20339;-57
2022/09/08 08:26:26;;;;;;;;;;;;;;;18.50;47.70;100904.28;4985943;28;20074;-57
2022/09/08 08:28:58;;;;;;;;;;;;;;;18.56;47.88;100898.38;4985632;28;20020;-57
2022/09/08 08:31:36;;;;;;;;;;;;;;;18.63;47.74;100897.84;4985495;28;19965;-57
2022/09/08 08:34:06;;;;;;;;;;;;;;;18.67;47.70;100893.94;4981481;28;20017;-56
2022/09/08 08:36:35;;;;;;;;;;;;;;;18.70;47.39;100898.97;4981996;28;19944;-55
2022/09/08 08:39:00;;;;;;;;;;;;;;;18.75;47.54;100896.75;4985662;28;20333;-57
2022/09/08 08:41:34;;;;;;;;;;;;;;;18.82;47.49;100897.88;4988922;28;19922;-58
2022/09/08 08:44:14;;;;;;;;;;;;;;;18.88;47.24;100891.97;4989544;28;20025;-53
2022/09/08 08:47:07;;;;;;;;;;;;;;;18.96;47.30;100883.31;4986018;28;19981;-58
2022/09/08 08:49:42;;;;;;;;;;;;;;;19.04;47.30;100883.47;4989294;28;19933;-58
2022/09/08 08:52:10;;;;;;;;;;;;;;;19.09;47.10;100877.72;4987384;28;19937;-57
2022/09/08 08:54:50;;;;;;;;;;;;;;;19.14;46.96;100872.78;4989757;28;19918;-58
2022/09/08 08:57:18;;;;;;;;;;;;;;;19.23;46.67;100862.25;4991176;28;19921;-56
2022/09/08 09:00:02;;;;;;;;;;;;;;;19.30;47.02;100864.19;4990012;28;20337;-54
2022/09/08 09:02:57;;;;;;;;;;;;;;;19.41;46.82;100854.34;4987281;28;20592;-57
2022/09/08 09:05:49;;;;;;;;;;;;;;;19.50;46.88;100857.00;4983973;28;19925;-57
2022/09/08 09:08:35;;;;;;;;;;;;;;;19.63;46.67;100859.34;4959746;28;19917;-55
2022/09/08 09:11:09;;;;;;;;;;;;;;;19.72;46.56;100863.00;4986860;28;20023;-56
2022/09/08 09:13:40;;;;;;;;;;;;;;;19.82;46.62;100860.25;4988534;28;19979;-56
2022/09/08 09:16:15;;;;;;;;;;;;;;;19.92;46.23;100854.91;4984531;28;20401;-58
2022/09/08 09:18:40;;;;;;;;;;;;;;;20.00;46.33;100854.19;4988942;28;19922;-54
2022/09/08 09:21:15;;;;;;;;;;;;;;;20.04;46.23;100850.22;4986205;28;19922;-57
2022/09/08 09:24:03;;;;;;;;;;;;;;;20.09;46.09;100835.44;4984339;28;19925;-54
2022/09/08 09:26:44;;;;;;;;;;;;;;;20.13;46.13;100819.13;4989308;28;19924;-57
2022/09/08 09:29:26;;;;;;;;;;;;;;;20.15;46.19;100809.94;4991942;28;20045;-57
2022/09/08 09:32:04;;;;;;;;;;;;;;;20.19;46.34;100816.69;4987294;28;19936;-57
2022/09/08 09:34:42;;;;;;;;;;;;;;;20.25;46.44;100817.91;4991177;28;19925;-57
2022/09/08 09:37:17;;;;;;;;;;;;;;;20.28;46.22;100806.94;4987649;28;19965;-53
2022/09/08 09:39:42;;;;;;;;;;;;;;;20.31;46.27;100809.31;4987396;28;19972;-57
2022/09/08 09:42:13;;;;;;;;;;;;;;;20.35;46.52;100799.97;4986726;28;20154;-55
2022/09/08 09:45:08;;;;;;;;;;;;;;;20.41;46.20;100814.59;4987954;28;19926;-57
2022/09/08 09:47:40;;;;;;;;;;;;;;;20.47;46.44;100807.78;4935887;28;19919;-57
2022/09/08 09:50:05;;;;;;;;;;;;;;;20.53;46.20;100810.69;4987703;28;19914;-57
2022/09/08 09:52:30;;;;;;;;;;;;;;;20.58;46.27;100807.56;4988021;28;19929;-55
2022/09/08 09:55:06;;;;;;;;;;;;;;;20.65;46.54;100802.44;4990000;28;19928;-57
2022/09/08 09:57:50;;;;;;;;;;;;;;;20.68;46.62;100794.94;4988632;28;19926;-57
2022/09/08 10:00:20;;;;;;;;;;;;;;;20.73;46.62;100796.31;4989808;28;19922;-58
2022/09/08 10:02:57;;;;;;;;;;;;;;;20.75;46.53;100800.53;4989232;28;19930;-53
2022/09/08 10:05:41;;;;;;;;;;;;;;;20.77;46.68;100793.22;4988672;28;19953;-53
2022/09/08 10:08:19;;;;;;;;;;;;;;;20.77;46.84;100787.88;4987259;28;20685;-56
2022/09/08 10:10:44;;;;;;;;;;;;;;;20.78;46.81;100789.53;4984693;28;19941;-57
2022/09/08 10:13:28;;;;;;;;;;;;;;;20.80;47.24;100789.38;4985553;28;19921;-54
2022/09/08 10:16:02;;;;;;;;;;;;;;;20.81;47.35;100785.72;4989047;28;19961;-58
2022/09/08 10:18:39;;;;;;;;;;;;;;;20.80;47.33;100782.22;4987573;28;19980;-54
2022/09/08 10:21:23;;;;;;;;;;;;;;;20.80;47.41;100771.53;4986833;28;20301;-54
2022/09/08 10:23:48;;;;;;;;;;;;;;;20.82;47.61;100780.22;4988266;28;19922;-57
2022/09/08 10:26:33;;;;;;;;;;;;;;;20.83;48.06;100776.56;4986511;28;19926;-53
2022/09/08 10:29:04;;;;;;;;;;;;;;;20.86;47.89;100773.59;4986127;28;19925;-56
2022/09/08 10:31:35;;;;;;;;;;;;;;;20.89;47.99;100772.44;4987530;28;19921;-54
2022/09/08 10:34:12;;;;;;;;;;;;;;;20.94;47.97;100778.16;4987437;28;19928;-54
2022/09/08 10:36:37;;;;;;;;;;;;;;;21.00;48.09;100774.84;4986046;28;19949;-54
2022/09/08 10:39:11;;;;;;;;;;;;;;;21.06;48.25;100769.88;4985240;28;20480;-56
2022/09/08 10:41:58;;;;;;;;;;;;;;;21.11;48.49;100751.50;4984392;28;20034;-54
2022/09/08 10:44:29;;;;;;;;;;;;;;;21.14;48.41;100741.34;4984609;28;20309;-55
2022/09/08 10:47:16;;;;;;;;;;;;;;;21.20;48.51;100745.22;4988034;28;20415;-53
2022/09/08 10:49:57;;;;;;;;;;;;;;;21.24;48.56;100751.06;4986278;28;20060;-54
2022/09/08 10:52:25;;;;;;;;;;;;;;;21.25;48.52;100758.94;4979852;28;19925;-57
2022/09/08 10:55:06;;;;;;;;;;;;;;;21.23;48.40;100755.59;4987098;28;19922;-54
2022/09/08 10:57:47;;;;;;;;;;;;;;;21.23;48.84;100758.28;4983032;28;19933;-55
2022/09/08 11:00:15;;;;;;;;;;;;;;;21.23;48.88;100755.59;4985254;28;19922;-56
2022/09/08 11:03:00;;;;;;;;;;;;;;;21.19;48.73;100753.38;4983644;28;20340;-53
2022/09/08 11:05:41;;;;;;;;;;;;;;;21.12;48.54;100761.19;4976272;28;19921;-54
2022/09/08 11:08:25;;;;;;;;;;;;;;;21.05;48.14;100752.13;4986268;28;19929;-57
2022/09/08 11:11:07;;;;;;;;;;;;;;;20.97;48.30;100763.63;4986556;28;19933;-54
2022/09/08 11:13:37;;;;;;;;;;;;;;;20.90;48.27;100767.91;4986761;28;20282;-54
2022/09/08 11:16:11;;;;;;;;;;;;;;;20.82;48.24;100761.50;4986730;28;19922;-54
2022/09/08 11:18:46;;;;;;;;;;;;;;;20.78;48.20;100770.00;4987056;28;19925;-55
2022/09/08 11:21:26;;;;;;;;;;;;;;;20.75;48.10;100759.59;4986964;28;19930;-53
2022/09/08 11:23:51;;;;;;;;;;;;;;;20.74;48.44;100760.56;4986814;28;19918;-53
2022/09/08 11:26:16;;;;;;;;;;;;;;;20.75;48.19;100767.59;4985440;28;19918;-54
2022/09/08 11:28:42;;;;;;;;;;;;;;;20.75;48.22;100773.81;4987310;28;19918;-54
2022/09/08 11:31:19;;;;;;;;;;;;;;;20.76;48.24;100772.00;4987918;28;20405;-55
2022/09/08 11:33:45;;;;;;;;;;;;;;;20.76;48.27;100767.47;4984514;28;19976;-55
2022/09/08 11:36:19;;;;;;;;;;;;;;;20.76;48.11;100772.00;4987610;28;19922;-54
2022/09/08 11:38:47;;;;;;;;;;;;;;;20.75;48.13;100783.66;4988344;28;20032;-56
2022/09/08 11:41:39;;;;;;;;;;;;;;;20.73;48.24;100777.59;4982335;28;19922;-54
2022/09/08 11:44:16;;;;;;;;;;;;;;;20.68;48.56;100768.22;4969348;28;19930;-56
2022/09/08 11:47:00;;;;;;;;;;;;;;;20.63;49.38;100761.66;4984156;28;19966;-54
2022/09/08 11:49:36;;;;;;;;;;;;;;;20.53;49.49;100764.41;4986475;28;20301;-55
2022/09/08 11:52:15;;;;;;;;;;;;;;;20.42;49.86;100752.09;4985304;28;19964;-57
2022/09/08 11:54:48;;;;;;;;;;;;;;;20.34;50.41;100738.69;4987841;28;19980;-57
2022/09/08 11:57:36;;;;;;;;;;;;;;;20.25;50.77;100740.44;4986762;28;20012;-56
2022/09/08 12:00:07;;;;;;;;;;;;;;;20.17;51.17;100745.72;4985590;28;19922;-54
2022/09/08 12:02:42;;;;;;;;;;;;;;;20.13;51.30;100744.31;4983828;28;19936;-56
2022/09/08 12:05:11;;;;;;;;;;;;;;;20.08;51.71;100742.94;4986468;28;19988;-54
2022/09/08 12:07:42;;;;;;;;;;;;;;;20.06;51.76;100742.25;4984544;28;20547;-56
2022/09/08 12:10:30;;;;;;;;;;;;;;;20.05;51.95;100740.56;4986176;28;19913;-55
2022/09/08 12:13:03;;;;;;;;;;;;;;;20.04;51.82;100727.38;4988956;28;19971;-56
2022/09/08 12:15:29;;;;;;;;;;;;;;;20.06;52.15;100731.56;4988426;28;19922;-55
2022/09/08 12:18:10;;;;;;;;;;;;;;;20.08;52.20;100713.56;4991450;28;19984;-54
2022/09/08 12:20:50;;;;;;;;;;;;;;;20.11;52.46;100717.78;4987783;28;19932;-57
2022/09/08 12:23:26;;;;;;;;;;;;;;;20.12;52.01;100714.09;4988345;28;19930;-55
2022/09/08 12:26:08;;;;;;;;;;;;;;;20.14;52.35;100713.94;4991077;28;20447;-54
2022/09/08 12:28:56;;;;;;;;;;;;;;;20.16;52.35;100706.63;4986253;28;19932;-55
2022/09/08 12:31:40;;;;;;;;;;;;;;;20.18;52.42;100701.97;4990488;28;19922;-55
2022/09/08 12:34:15;;;;;;;;;;;;;;;20.23;52.11;100710.34;4990472;28;20028;-53
2022/09/08 12:36:52;;;;;;;;;;;;;;;20.27;52.47;100703.72;4989524;28;19933;-54
2022/09/08 12:39:21;;;;;;;;;;;;;;;20.30;52.10;100702.56;4990032;28;19933;-54
2022/09/08 12:42:04;;;;;;;;;;;;;;;20.32;52.05;100689.91;4983675;28;20428;-58
2022/09/08 12:44:45;;;;;;;;;;;;;;;20.33;52.23;100681.75;4987690;28;20032;-54
2022/09/08 12:47:29;;;;;;;;;;;;;;;20.34;52.45;100686.09;4987970;28;19948;-55
2022/09/08 12:50:10;;;;;;;;;;;;;;;20.38;52.41;100687.44;4986247;28;19922;-56
2022/09/08 12:52:50;;;;;;;;;;;;;;;20.37;52.18;100683.09;4988796;28;20336;-57
2022/09/08 12:55:23;;;;;;;;;;;;;;;20.38;52.18;100682.09;4985994;28;20392;-53
2022/09/08 12:57:56;;;;;;;;;;;;;;;20.37;52.32;100680.41;4990582;28;19937;-55
2022/09/08 13:00:27;;;;;;;;;;;;;;;20.36;52.23;100678.75;4986884;28;20063;-55